sensor_id;sensor_type;location;lat;lon;timestamp;P1;durP1;ratioP1;P2;durP2;ratioP2
21959;SDS011;11144;43.030;25.108;2024-03-02T00:01:20;66.38;;;31.20;;
21959;SDS011;11144;43.030;25.108;2024-03-02T00:02:53;59.00;;;29.42;;
21959;SDS011;11144;43.030;25.108;2024-03-02T00:04:27;63.50;;;27.90;;
21959;SDS011;11144;43.030;25.108;2024-03-02T00:06:00;51.35;;;25.27;;
21959;SDS011;11144;43.030;25.108;2024-03-02T00:07:34;48.15;;;23.65;;
21959;SDS011;11144;43.030;25.108;2024-03-02T00:09:08;48.95;;;22.70;;
21959;SDS011;11144;43.030;25.108;2024-03-02T00:10:44;52.45;;;23.90;;
21959;SDS011;11144;43.030;25.108;2024-03-02T00:12:17;49.53;;;23.30;;
21959;SDS011;11144;43.030;25.108;2024-03-02T00:13:52;50.30;;;24.10;;
21959;SDS011;11144;43.030;25.108;2024-03-02T00:15:40;50.72;;;23.88;;
21959;SDS011;11144;43.030;25.108;2024-03-02T00:17:17;50.03;;;22.98;;
21959;SDS011;11144;43.030;25.108;2024-03-02T00:19:01;51.28;;;23.00;;
21959;SDS011;11144;43.030;25.108;2024-03-02T00:20:33;53.67;;;24.52;;
21959;SDS011;11144;43.030;25.108;2024-03-02T00:22:07;46.70;;;24.00;;
21959;SDS011;11144;43.030;25.108;2024-03-02T00:23:42;59.80;;;27.48;;
21959;SDS011;11144;43.030;25.108;2024-03-02T00:25:14;55.22;;;26.92;;
21959;SDS011;11144;43.030;25.108;2024-03-02T00:26:48;60.60;;;27.80;;
21959;SDS011;11144;43.030;25.108;2024-03-02T00:28:21;62.63;;;26.75;;
21959;SDS011;11144;43.030;25.108;2024-03-02T00:29:55;60.20;;;26.80;;
21959;SDS011;11144;43.030;25.108;2024-03-02T00:31:28;54.47;;;26.42;;
21959;SDS011;11144;43.030;25.108;2024-03-02T00:33:02;51.72;;;26.15;;
21959;SDS011;11144;43.030;25.108;2024-03-02T00:34:39;50.65;;;24.52;;
21959;SDS011;11144;43.030;25.108;2024-03-02T00:36:13;50.88;;;24.70;;
21959;SDS011;11144;43.030;25.108;2024-03-02T00:37:47;53.70;;;25.02;;
21959;SDS011;11144;43.030;25.108;2024-03-02T00:39:21;49.65;;;25.58;;
21959;SDS011;11144;43.030;25.108;2024-03-02T00:40:55;58.80;;;25.52;;
21959;SDS011;11144;43.030;25.108;2024-03-02T00:42:30;47.95;;;24.30;;
21959;SDS011;11144;43.030;25.108;2024-03-02T00:44:04;54.53;;;26.35;;
21959;SDS011;11144;43.030;25.108;2024-03-02T00:45:39;49.13;;;25.77;;
21959;SDS011;11144;43.030;25.108;2024-03-02T00:47:12;46.30;;;23.83;;
21959;SDS011;11144;43.030;25.108;2024-03-02T00:48:48;52.92;;;23.35;;
21959;SDS011;11144;43.030;25.108;2024-03-02T00:50:24;38.00;;;20.38;;
21959;SDS011;11144;43.030;25.108;2024-03-02T00:52:01;36.70;;;18.10;;
21959;SDS011;11144;43.030;25.108;2024-03-02T00:53:35;34.13;;;19.15;;
21959;SDS011;11144;43.030;25.108;2024-03-02T00:55:10;36.38;;;19.15;;
21959;SDS011;11144;43.030;25.108;2024-03-02T00:56:43;37.65;;;18.30;;
21959;SDS011;11144;43.030;25.108;2024-03-02T00:58:17;42.80;;;20.15;;
21959;SDS011;11144;43.030;25.108;2024-03-02T00:59:49;37.05;;;18.33;;
21959;SDS011;11144;43.030;25.108;2024-03-02T01:01:23;40.35;;;19.92;;
21959;SDS011;11144;43.030;25.108;2024-03-02T01:02:55;34.65;;;18.52;;
21959;SDS011;11144;43.030;25.108;2024-03-02T01:04:29;37.17;;;19.58;;
21959;SDS011;11144;43.030;25.108;2024-03-02T01:06:01;42.25;;;18.90;;
21959;SDS011;11144;43.030;25.108;2024-03-02T01:07:35;34.63;;;19.58;;
21959;SDS011;11144;43.030;25.108;2024-03-02T01:09:09;39.58;;;19.30;;
21959;SDS011;11144;43.030;25.108;2024-03-02T01:10:45;35.17;;;18.52;;
21959;SDS011;11144;43.030;25.108;2024-03-02T01:12:18;42.63;;;18.30;;
21959;SDS011;11144;43.030;25.108;2024-03-02T01:13:51;35.83;;;18.15;;
21959;SDS011;11144;43.030;25.108;2024-03-02T01:15:24;38.95;;;17.98;;
21959;SDS011;11144;43.030;25.108;2024-03-02T01:16:58;40.80;;;18.05;;
21959;SDS011;11144;43.030;25.108;2024-03-02T01:18:30;38.10;;;17.70;;
21959;SDS011;11144;43.030;25.108;2024-03-02T01:20:04;34.50;;;17.60;;
21959;SDS011;11144;43.030;25.108;2024-03-02T01:21:40;39.47;;;18.70;;
21959;SDS011;11144;43.030;25.108;2024-03-02T01:23:13;43.20;;;20.83;;
21959;SDS011;11144;43.030;25.108;2024-03-02T01:24:45;41.83;;;17.77;;
21959;SDS011;11144;43.030;25.108;2024-03-02T01:26:20;39.13;;;18.75;;
21959;SDS011;11144;43.030;25.108;2024-03-02T01:27:54;38.50;;;19.42;;
21959;SDS011;11144;43.030;25.108;2024-03-02T01:29:26;45.63;;;20.23;;
21959;SDS011;11144;43.030;25.108;2024-03-02T01:30:59;47.00;;;21.15;;
21959;SDS011;11144;43.030;25.108;2024-03-02T01:32:33;40.28;;;19.95;;
21959;SDS011;11144;43.030;25.108;2024-03-02T01:34:06;37.95;;;18.80;;
21959;SDS011;11144;43.030;25.108;2024-03-02T01:35:40;44.58;;;19.70;;
21959;SDS011;11144;43.030;25.108;2024-03-02T01:37:12;45.40;;;19.70;;
21959;SDS011;11144;43.030;25.108;2024-03-02T01:38:46;39.97;;;18.77;;
21959;SDS011;11144;43.030;25.108;2024-03-02T01:40:18;41.58;;;21.00;;
21959;SDS011;11144;43.030;25.108;2024-03-02T01:41:53;39.92;;;20.20;;
21959;SDS011;11144;43.030;25.108;2024-03-02T01:43:26;39.40;;;19.88;;
21959;SDS011;11144;43.030;25.108;2024-03-02T01:44:59;49.17;;;22.10;;
21959;SDS011;11144;43.030;25.108;2024-03-02T01:46:33;48.53;;;21.27;;
21959;SDS011;11144;43.030;25.108;2024-03-02T01:48:06;49.30;;;21.88;;
21959;SDS011;11144;43.030;25.108;2024-03-02T01:49:39;54.30;;;22.85;;
21959;SDS011;11144;43.030;25.108;2024-03-02T01:51:13;47.08;;;22.48;;
21959;SDS011;11144;43.030;25.108;2024-03-02T01:52:46;42.08;;;20.77;;
21959;SDS011;11144;43.030;25.108;2024-03-02T01:54:19;39.53;;;20.30;;
21959;SDS011;11144;43.030;25.108;2024-03-02T01:55:54;42.10;;;21.25;;
21959;SDS011;11144;43.030;25.108;2024-03-02T01:57:28;44.30;;;19.88;;
21959;SDS011;11144;43.030;25.108;2024-03-02T01:59:02;46.05;;;21.52;;
21959;SDS011;11144;43.030;25.108;2024-03-02T02:00:35;39.55;;;21.63;;
21959;SDS011;11144;43.030;25.108;2024-03-02T02:02:09;44.95;;;21.58;;
21959;SDS011;11144;43.030;25.108;2024-03-02T02:03:41;57.45;;;23.48;;
21959;SDS011;11144;43.030;25.108;2024-03-02T02:05:14;47.13;;;22.10;;
21959;SDS011;11144;43.030;25.108;2024-03-02T02:06:48;62.13;;;26.92;;
21959;SDS011;11144;43.030;25.108;2024-03-02T02:08:20;64.10;;;26.35;;
21959;SDS011;11144;43.030;25.108;2024-03-02T02:09:53;56.00;;;26.00;;
21959;SDS011;11144;43.030;25.108;2024-03-02T02:11:26;63.25;;;26.63;;
21959;SDS011;11144;43.030;25.108;2024-03-02T02:13:01;44.25;;;22.83;;
21959;SDS011;11144;43.030;25.108;2024-03-02T02:14:34;46.20;;;22.77;;
21959;SDS011;11144;43.030;25.108;2024-03-02T02:16:08;49.63;;;24.05;;
21959;SDS011;11144;43.030;25.108;2024-03-02T02:17:40;45.05;;;21.98;;
21959;SDS011;11144;43.030;25.108;2024-03-02T02:19:14;49.72;;;22.73;;
21959;SDS011;11144;43.030;25.108;2024-03-02T02:20:46;48.47;;;21.98;;
21959;SDS011;11144;43.030;25.108;2024-03-02T02:22:21;49.22;;;22.02;;
21959;SDS011;11144;43.030;25.108;2024-03-02T02:23:53;46.35;;;23.55;;
21959;SDS011;11144;43.030;25.108;2024-03-02T02:25:28;48.70;;;22.88;;
21959;SDS011;11144;43.030;25.108;2024-03-02T02:27:01;46.45;;;21.23;;
21959;SDS011;11144;43.030;25.108;2024-03-02T02:28:34;48.38;;;22.30;;
21959;SDS011;11144;43.030;25.108;2024-03-02T02:30:08;46.50;;;21.73;;
21959;SDS011;11144;43.030;25.108;2024-03-02T02:31:41;40.65;;;21.80;;
21959;SDS011;11144;43.030;25.108;2024-03-02T02:33:15;43.33;;;21.83;;
21959;SDS011;11144;43.030;25.108;2024-03-02T02:34:51;45.75;;;23.67;;
21959;SDS011;11144;43.030;25.108;2024-03-02T02:36:24;44.63;;;21.52;;
21959;SDS011;11144;43.030;25.108;2024-03-02T02:37:59;40.15;;;21.02;;
21959;SDS011;11144;43.030;25.108;2024-03-02T02:39:31;43.42;;;20.65;;
21959;SDS011;11144;43.030;25.108;2024-03-02T02:41:05;43.78;;;22.65;;
21959;SDS011;11144;43.030;25.108;2024-03-02T02:42:37;42.85;;;21.77;;
21959;SDS011;11144;43.030;25.108;2024-03-02T02:44:11;64.07;;;31.25;;
21959;SDS011;11144;43.030;25.108;2024-03-02T02:45:44;44.33;;;22.27;;
21959;SDS011;11144;43.030;25.108;2024-03-02T02:47:18;39.40;;;20.60;;
21959;SDS011;11144;43.030;25.108;2024-03-02T02:48:51;43.83;;;20.42;;
21959;SDS011;11144;43.030;25.108;2024-03-02T02:50:25;35.45;;;18.58;;
21959;SDS011;11144;43.030;25.108;2024-03-02T02:51:58;33.38;;;16.92;;
21959;SDS011;11144;43.030;25.108;2024-03-02T02:53:32;32.97;;;18.35;;
21959;SDS011;11144;43.030;25.108;2024-03-02T02:55:07;37.80;;;18.23;;
21959;SDS011;11144;43.030;25.108;2024-03-02T02:56:42;37.72;;;19.67;;
21959;SDS011;11144;43.030;25.108;2024-03-02T02:58:14;37.83;;;16.85;;
21959;SDS011;11144;43.030;25.108;2024-03-02T02:59:48;34.15;;;17.08;;
21959;SDS011;11144;43.030;25.108;2024-03-02T03:01:20;31.77;;;16.45;;
21959;SDS011;11144;43.030;25.108;2024-03-02T03:02:53;36.97;;;17.58;;
21959;SDS011;11144;43.030;25.108;2024-03-02T03:04:26;32.78;;;17.08;;
21959;SDS011;11144;43.030;25.108;2024-03-02T03:05:59;35.85;;;16.92;;
21959;SDS011;11144;43.030;25.108;2024-03-02T03:07:32;37.42;;;18.17;;
21959;SDS011;11144;43.030;25.108;2024-03-02T03:09:07;33.80;;;17.17;;
21959;SDS011;11144;43.030;25.108;2024-03-02T03:10:42;36.47;;;16.88;;
21959;SDS011;11144;43.030;25.108;2024-03-02T03:12:15;34.95;;;17.42;;
21959;SDS011;11144;43.030;25.108;2024-03-02T03:13:48;40.47;;;18.42;;
21959;SDS011;11144;43.030;25.108;2024-03-02T03:15:21;31.63;;;17.98;;
21959;SDS011;11144;43.030;25.108;2024-03-02T03:16:54;37.35;;;18.23;;
21959;SDS011;11144;43.030;25.108;2024-03-02T03:18:27;45.20;;;20.67;;
21959;SDS011;11144;43.030;25.108;2024-03-02T03:20:00;40.67;;;18.35;;
21959;SDS011;11144;43.030;25.108;2024-03-02T03:21:32;40.55;;;18.88;;
21959;SDS011;11144;43.030;25.108;2024-03-02T03:23:06;36.80;;;18.60;;
21959;SDS011;11144;43.030;25.108;2024-03-02T03:24:40;37.42;;;18.35;;
21959;SDS011;11144;43.030;25.108;2024-03-02T03:26:14;41.42;;;19.25;;
21959;SDS011;11144;43.030;25.108;2024-03-02T03:27:47;34.67;;;18.20;;
21959;SDS011;11144;43.030;25.108;2024-03-02T03:29:19;39.42;;;18.50;;
21959;SDS011;11144;43.030;25.108;2024-03-02T03:30:53;33.60;;;18.95;;
21959;SDS011;11144;43.030;25.108;2024-03-02T03:32:26;37.15;;;18.40;;
21959;SDS011;11144;43.030;25.108;2024-03-02T03:33:59;39.40;;;20.60;;
21959;SDS011;11144;43.030;25.108;2024-03-02T03:35:32;37.42;;;18.60;;
21959;SDS011;11144;43.030;25.108;2024-03-02T03:37:05;42.42;;;19.48;;
21959;SDS011;11144;43.030;25.108;2024-03-02T03:38:39;38.45;;;18.67;;
21959;SDS011;11144;43.030;25.108;2024-03-02T03:40:13;39.15;;;19.02;;
21959;SDS011;11144;43.030;25.108;2024-03-02T03:41:46;36.20;;;18.63;;
21959;SDS011;11144;43.030;25.108;2024-03-02T03:43:18;37.42;;;18.33;;
21959;SDS011;11144;43.030;25.108;2024-03-02T03:44:51;34.35;;;18.15;;
21959;SDS011;11144;43.030;25.108;2024-03-02T03:46:24;39.33;;;17.13;;
21959;SDS011;11144;43.030;25.108;2024-03-02T03:47:57;33.05;;;17.65;;
21959;SDS011;11144;43.030;25.108;2024-03-02T03:49:30;37.72;;;18.83;;
21959;SDS011;11144;43.030;25.108;2024-03-02T03:51:03;37.08;;;18.13;;
21959;SDS011;11144;43.030;25.108;2024-03-02T03:52:36;39.53;;;20.15;;
21959;SDS011;11144;43.030;25.108;2024-03-02T03:54:09;37.88;;;20.02;;
21959;SDS011;11144;43.030;25.108;2024-03-02T03:55:44;35.85;;;18.55;;
21959;SDS011;11144;43.030;25.108;2024-03-02T03:57:18;36.65;;;18.20;;
21959;SDS011;11144;43.030;25.108;2024-03-02T03:58:50;37.33;;;17.70;;
21959;SDS011;11144;43.030;25.108;2024-03-02T04:00:23;41.60;;;21.02;;
21959;SDS011;11144;43.030;25.108;2024-03-02T04:01:56;44.60;;;22.38;;
21959;SDS011;11144;43.030;25.108;2024-03-02T04:03:29;48.13;;;20.13;;
21959;SDS011;11144;43.030;25.108;2024-03-02T04:05:02;45.40;;;22.33;;
21959;SDS011;11144;43.030;25.108;2024-03-02T04:06:40;39.05;;;20.92;;
21959;SDS011;11144;43.030;25.108;2024-03-02T04:08:13;46.95;;;21.65;;
21959;SDS011;11144;43.030;25.108;2024-03-02T04:09:46;41.85;;;19.80;;
21959;SDS011;11144;43.030;25.108;2024-03-02T04:11:20;45.28;;;21.70;;
21959;SDS011;11144;43.030;25.108;2024-03-02T04:12:53;40.53;;;20.35;;
21959;SDS011;11144;43.030;25.108;2024-03-02T04:14:27;41.25;;;19.40;;
21959;SDS011;11144;43.030;25.108;2024-03-02T04:15:59;44.60;;;21.40;;
21959;SDS011;11144;43.030;25.108;2024-03-02T04:17:33;44.85;;;20.52;;
21959;SDS011;11144;43.030;25.108;2024-03-02T04:19:07;39.85;;;20.60;;
21959;SDS011;11144;43.030;25.108;2024-03-02T04:20:41;44.97;;;20.38;;
21959;SDS011;11144;43.030;25.108;2024-03-02T04:22:13;34.47;;;18.45;;
21959;SDS011;11144;43.030;25.108;2024-03-02T04:23:55;36.78;;;20.02;;
21959;SDS011;11144;43.030;25.108;2024-03-02T04:25:30;38.75;;;18.70;;
21959;SDS011;11144;43.030;25.108;2024-03-02T04:27:05;40.35;;;19.92;;
21959;SDS011;11144;43.030;25.108;2024-03-02T04:28:37;39.83;;;19.83;;
21959;SDS011;11144;43.030;25.108;2024-03-02T04:30:10;43.42;;;20.75;;
21959;SDS011;11144;43.030;25.108;2024-03-02T04:31:43;41.70;;;18.98;;
21959;SDS011;11144;43.030;25.108;2024-03-02T04:33:17;39.55;;;18.42;;
21959;SDS011;11144;43.030;25.108;2024-03-02T04:34:49;40.50;;;20.05;;
21959;SDS011;11144;43.030;25.108;2024-03-02T04:36:23;40.25;;;19.25;;
21959;SDS011;11144;43.030;25.108;2024-03-02T04:37:56;41.38;;;20.13;;
21959;SDS011;11144;43.030;25.108;2024-03-02T04:39:29;42.83;;;19.23;;
21959;SDS011;11144;43.030;25.108;2024-03-02T04:41:01;42.58;;;19.77;;
21959;SDS011;11144;43.030;25.108;2024-03-02T04:42:36;43.95;;;19.67;;
21959;SDS011;11144;43.030;25.108;2024-03-02T04:44:10;40.72;;;19.40;;
21959;SDS011;11144;43.030;25.108;2024-03-02T04:45:42;44.03;;;21.55;;
21959;SDS011;11144;43.030;25.108;2024-03-02T04:47:15;39.60;;;18.50;;
21959;SDS011;11144;43.030;25.108;2024-03-02T04:48:49;42.25;;;18.67;;
21959;SDS011;11144;43.030;25.108;2024-03-02T04:50:27;44.65;;;19.55;;
21959;SDS011;11144;43.030;25.108;2024-03-02T04:52:01;41.08;;;19.63;;
21959;SDS011;11144;43.030;25.108;2024-03-02T04:53:33;36.08;;;17.75;;
21959;SDS011;11144;43.030;25.108;2024-03-02T04:55:07;36.25;;;18.38;;
21959;SDS011;11144;43.030;25.108;2024-03-02T04:56:51;35.58;;;17.23;;
21959;SDS011;11144;43.030;25.108;2024-03-02T04:58:26;43.25;;;20.45;;
21959;SDS011;11144;43.030;25.108;2024-03-02T04:59:58;45.13;;;19.55;;
21959;SDS011;11144;43.030;25.108;2024-03-02T05:01:32;42.85;;;19.05;;
21959;SDS011;11144;43.030;25.108;2024-03-02T05:03:04;44.05;;;18.75;;
21959;SDS011;11144;43.030;25.108;2024-03-02T05:04:38;36.00;;;18.55;;
21959;SDS011;11144;43.030;25.108;2024-03-02T05:06:10;35.58;;;17.73;;
21959;SDS011;11144;43.030;25.108;2024-03-02T05:07:44;43.53;;;21.63;;
21959;SDS011;11144;43.030;25.108;2024-03-02T05:09:16;37.28;;;18.60;;
21959;SDS011;11144;43.030;25.108;2024-03-02T05:10:49;198.88;;;103.97;;
21959;SDS011;11144;43.030;25.108;2024-03-02T05:12:21;45.92;;;22.55;;
21959;SDS011;11144;43.030;25.108;2024-03-02T05:14:30;40.00;;;18.38;;
21959;SDS011;11144;43.030;25.108;2024-03-02T05:16:02;48.13;;;20.58;;
21959;SDS011;11144;43.030;25.108;2024-03-02T05:17:36;45.33;;;21.33;;
21959;SDS011;11144;43.030;25.108;2024-03-02T05:19:09;55.42;;;25.02;;
21959;SDS011;11144;43.030;25.108;2024-03-02T05:20:42;71.75;;;38.38;;
21959;SDS011;11144;43.030;25.108;2024-03-02T05:22:15;105.30;;;56.60;;
21959;SDS011;11144;43.030;25.108;2024-03-02T05:23:48;100.40;;;57.67;;
21959;SDS011;11144;43.030;25.108;2024-03-02T05:25:21;104.90;;;57.47;;
21959;SDS011;11144;43.030;25.108;2024-03-02T05:26:54;115.55;;;62.47;;
21959;SDS011;11144;43.030;25.108;2024-03-02T05:28:28;117.38;;;64.70;;
21959;SDS011;11144;43.030;25.108;2024-03-02T05:30:01;109.10;;;57.67;;
21959;SDS011;11144;43.030;25.108;2024-03-02T05:31:38;106.45;;;60.78;;
21959;SDS011;11144;43.030;25.108;2024-03-02T05:33:11;98.85;;;53.53;;
21959;SDS011;11144;43.030;25.108;2024-03-02T05:34:44;122.32;;;68.82;;
21959;SDS011;11144;43.030;25.108;2024-03-02T05:36:17;138.88;;;82.05;;
21959;SDS011;11144;43.030;25.108;2024-03-02T05:37:50;133.63;;;76.95;;
21959;SDS011;11144;43.030;25.108;2024-03-02T05:39:23;126.60;;;70.55;;
21959;SDS011;11144;43.030;25.108;2024-03-02T05:40:56;113.20;;;64.10;;
21959;SDS011;11144;43.030;25.108;2024-03-02T05:42:29;119.57;;;62.35;;
21959;SDS011;11144;43.030;25.108;2024-03-02T05:44:02;118.93;;;66.40;;
21959;SDS011;11144;43.030;25.108;2024-03-02T05:45:36;112.85;;;63.58;;
21959;SDS011;11144;43.030;25.108;2024-03-02T05:47:10;123.80;;;66.00;;
21959;SDS011;11144;43.030;25.108;2024-03-02T05:48:42;121.70;;;69.32;;
21959;SDS011;11144;43.030;25.108;2024-03-02T05:50:15;116.72;;;61.08;;
21959;SDS011;11144;43.030;25.108;2024-03-02T05:51:49;105.60;;;56.40;;
21959;SDS011;11144;43.030;25.108;2024-03-02T05:53:22;90.07;;;50.15;;
21959;SDS011;11144;43.030;25.108;2024-03-02T05:54:54;82.47;;;43.25;;
21959;SDS011;11144;43.030;25.108;2024-03-02T05:56:27;47.65;;;24.65;;
21959;SDS011;11144;43.030;25.108;2024-03-02T05:58:00;43.97;;;22.73;;
21959;SDS011;11144;43.030;25.108;2024-03-02T05:59:49;38.13;;;20.70;;
21959;SDS011;11144;43.030;25.108;2024-03-02T06:01:22;40.08;;;20.15;;
21959;SDS011;11144;43.030;25.108;2024-03-02T06:03:00;42.50;;;20.67;;
21959;SDS011;11144;43.030;25.108;2024-03-02T06:04:32;42.67;;;22.08;;
21959;SDS011;11144;43.030;25.108;2024-03-02T06:06:06;38.08;;;20.45;;
21959;SDS011;11144;43.030;25.108;2024-03-02T06:07:38;42.50;;;20.42;;
21959;SDS011;11144;43.030;25.108;2024-03-02T06:09:11;41.75;;;19.75;;
21959;SDS011;11144;43.030;25.108;2024-03-02T06:12:35;44.88;;;21.35;;
21959;SDS011;11144;43.030;25.108;2024-03-02T06:14:09;43.80;;;20.90;;
21959;SDS011;11144;43.030;25.108;2024-03-02T06:15:41;68.28;;;34.58;;
21959;SDS011;11144;43.030;25.108;2024-03-02T06:17:16;49.50;;;21.70;;
21959;SDS011;11144;43.030;25.108;2024-03-02T06:18:48;44.00;;;21.40;;
21959;SDS011;11144;43.030;25.108;2024-03-02T06:20:23;41.80;;;19.83;;
21959;SDS011;11144;43.030;25.108;2024-03-02T06:21:55;40.70;;;19.85;;
21959;SDS011;11144;43.030;25.108;2024-03-02T06:23:28;39.70;;;19.17;;
21959;SDS011;11144;43.030;25.108;2024-03-02T06:25:01;43.45;;;19.08;;
21959;SDS011;11144;43.030;25.108;2024-03-02T06:26:34;44.22;;;20.25;;
21959;SDS011;11144;43.030;25.108;2024-03-02T06:28:06;42.10;;;20.23;;
21959;SDS011;11144;43.030;25.108;2024-03-02T06:29:40;43.60;;;20.40;;
21959;SDS011;11144;43.030;25.108;2024-03-02T06:31:12;43.65;;;20.70;;
21959;SDS011;11144;43.030;25.108;2024-03-02T06:32:47;51.22;;;24.95;;
21959;SDS011;11144;43.030;25.108;2024-03-02T06:34:19;54.67;;;22.58;;
21959;SDS011;11144;43.030;25.108;2024-03-02T06:35:53;43.95;;;22.38;;
21959;SDS011;11144;43.030;25.108;2024-03-02T06:37:25;51.88;;;24.50;;
21959;SDS011;11144;43.030;25.108;2024-03-02T06:38:58;50.15;;;23.92;;
21959;SDS011;11144;43.030;25.108;2024-03-02T06:40:31;52.67;;;25.25;;
21959;SDS011;11144;43.030;25.108;2024-03-02T06:42:05;48.80;;;25.10;;
21959;SDS011;11144;43.030;25.108;2024-03-02T06:43:38;52.55;;;25.83;;
21959;SDS011;11144;43.030;25.108;2024-03-02T06:45:11;56.80;;;28.75;;
21959;SDS011;11144;43.030;25.108;2024-03-02T06:46:43;54.72;;;27.17;;
21959;SDS011;11144;43.030;25.108;2024-03-02T06:48:18;50.70;;;26.90;;
21959;SDS011;11144;43.030;25.108;2024-03-02T06:49:51;57.65;;;29.20;;
21959;SDS011;11144;43.030;25.108;2024-03-02T06:51:25;60.58;;;28.75;;
21959;SDS011;11144;43.030;25.108;2024-03-02T06:52:58;53.13;;;25.92;;
21959;SDS011;11144;43.030;25.108;2024-03-02T06:54:31;55.30;;;26.48;;
21959;SDS011;11144;43.030;25.108;2024-03-02T06:56:06;54.80;;;26.02;;
21959;SDS011;11144;43.030;25.108;2024-03-02T06:57:41;47.92;;;22.77;;
21959;SDS011;11144;43.030;25.108;2024-03-02T06:59:14;48.75;;;24.27;;
21959;SDS011;11144;43.030;25.108;2024-03-02T07:00:46;44.85;;;23.77;;
21959;SDS011;11144;43.030;25.108;2024-03-02T07:02:20;48.92;;;25.35;;
21959;SDS011;11144;43.030;25.108;2024-03-02T07:03:54;59.05;;;27.88;;
21959;SDS011;11144;43.030;25.108;2024-03-02T07:05:27;49.33;;;25.15;;
21959;SDS011;11144;43.030;25.108;2024-03-02T07:07:00;55.15;;;26.83;;
21959;SDS011;11144;43.030;25.108;2024-03-02T07:08:34;48.67;;;26.63;;
21959;SDS011;11144;43.030;25.108;2024-03-02T07:10:07;53.22;;;27.75;;
21959;SDS011;11144;43.030;25.108;2024-03-02T07:11:40;61.35;;;26.20;;
21959;SDS011;11144;43.030;25.108;2024-03-02T07:13:12;55.45;;;27.33;;
21959;SDS011;11144;43.030;25.108;2024-03-02T07:14:46;56.55;;;27.77;;
21959;SDS011;11144;43.030;25.108;2024-03-02T07:16:43;56.75;;;27.23;;
21959;SDS011;11144;43.030;25.108;2024-03-02T07:18:16;56.53;;;27.45;;
21959;SDS011;11144;43.030;25.108;2024-03-02T07:19:50;165.82;;;82.68;;
21959;SDS011;11144;43.030;25.108;2024-03-02T07:21:23;77.63;;;40.08;;
21959;SDS011;11144;43.030;25.108;2024-03-02T07:22:56;61.72;;;33.05;;
21959;SDS011;11144;43.030;25.108;2024-03-02T07:24:30;62.63;;;30.48;;
21959;SDS011;11144;43.030;25.108;2024-03-02T07:26:02;56.75;;;29.40;;
21959;SDS011;11144;43.030;25.108;2024-03-02T07:27:38;60.78;;;29.52;;
21959;SDS011;11144;43.030;25.108;2024-03-02T07:29:12;64.90;;;31.27;;
21959;SDS011;11144;43.030;25.108;2024-03-02T07:30:44;59.58;;;30.55;;
21959;SDS011;11144;43.030;25.108;2024-03-02T07:32:18;68.93;;;32.63;;
21959;SDS011;11144;43.030;25.108;2024-03-02T07:33:50;76.32;;;35.70;;
21959;SDS011;11144;43.030;25.108;2024-03-02T07:35:25;69.82;;;33.40;;
21959;SDS011;11144;43.030;25.108;2024-03-02T07:36:59;69.00;;;35.83;;
21959;SDS011;11144;43.030;25.108;2024-03-02T07:38:33;76.68;;;38.53;;
21959;SDS011;11144;43.030;25.108;2024-03-02T07:40:07;69.45;;;34.95;;
21959;SDS011;11144;43.030;25.108;2024-03-02T07:41:42;62.53;;;32.95;;
21959;SDS011;11144;43.030;25.108;2024-03-02T07:43:17;53.75;;;28.30;;
21959;SDS011;11144;43.030;25.108;2024-03-02T07:44:50;58.72;;;29.83;;
21959;SDS011;11144;43.030;25.108;2024-03-02T07:46:23;61.40;;;31.25;;
21959;SDS011;11144;43.030;25.108;2024-03-02T07:47:56;60.20;;;28.33;;
21959;SDS011;11144;43.030;25.108;2024-03-02T07:49:29;53.20;;;28.65;;
21959;SDS011;11144;43.030;25.108;2024-03-02T07:51:04;57.53;;;30.33;;
21959;SDS011;11144;43.030;25.108;2024-03-02T07:52:36;68.97;;;34.40;;
21959;SDS011;11144;43.030;25.108;2024-03-02T07:54:10;57.05;;;31.10;;
21959;SDS011;11144;43.030;25.108;2024-03-02T07:55:42;49.38;;;24.67;;
21959;SDS011;11144;43.030;25.108;2024-03-02T07:57:16;48.17;;;26.02;;
21959;SDS011;11144;43.030;25.108;2024-03-02T07:58:48;69.60;;;35.13;;
21959;SDS011;11144;43.030;25.108;2024-03-02T08:00:22;61.47;;;30.58;;
21959;SDS011;11144;43.030;25.108;2024-03-02T08:01:54;50.53;;;25.25;;
21959;SDS011;11144;43.030;25.108;2024-03-02T08:03:28;50.05;;;27.00;;
21959;SDS011;11144;43.030;25.108;2024-03-02T08:05:01;59.05;;;28.92;;
21959;SDS011;11144;43.030;25.108;2024-03-02T08:06:35;56.03;;;28.70;;
21959;SDS011;11144;43.030;25.108;2024-03-02T08:08:08;54.75;;;27.83;;
21959;SDS011;11144;43.030;25.108;2024-03-02T08:09:41;60.28;;;29.95;;
21959;SDS011;11144;43.030;25.108;2024-03-02T08:11:14;54.10;;;28.02;;
21959;SDS011;11144;43.030;25.108;2024-03-02T08:12:47;46.65;;;26.02;;
21959;SDS011;11144;43.030;25.108;2024-03-02T08:14:19;49.90;;;25.50;;
21959;SDS011;11144;43.030;25.108;2024-03-02T08:15:53;47.17;;;24.55;;
21959;SDS011;11144;43.030;25.108;2024-03-02T08:17:25;46.30;;;25.67;;
21959;SDS011;11144;43.030;25.108;2024-03-02T08:18:59;43.03;;;24.17;;
21959;SDS011;11144;43.030;25.108;2024-03-02T08:20:31;44.33;;;23.20;;
21959;SDS011;11144;43.030;25.108;2024-03-02T08:22:06;42.85;;;23.40;;
21959;SDS011;11144;43.030;25.108;2024-03-02T08:23:38;52.47;;;27.65;;
21959;SDS011;11144;43.030;25.108;2024-03-02T08:25:15;47.00;;;24.30;;
21959;SDS011;11144;43.030;25.108;2024-03-02T08:26:48;40.65;;;21.42;;
21959;SDS011;11144;43.030;25.108;2024-03-02T08:28:22;46.03;;;23.17;;
21959;SDS011;11144;43.030;25.108;2024-03-02T08:29:54;48.00;;;24.83;;
21959;SDS011;11144;43.030;25.108;2024-03-02T08:31:28;45.58;;;23.65;;
21959;SDS011;11144;43.030;25.108;2024-03-02T08:33:00;39.00;;;22.23;;
21959;SDS011;11144;43.030;25.108;2024-03-02T08:34:34;45.17;;;25.00;;
21959;SDS011;11144;43.030;25.108;2024-03-02T08:36:07;48.42;;;25.20;;
21959;SDS011;11144;43.030;25.108;2024-03-02T08:37:43;42.35;;;23.83;;
21959;SDS011;11144;43.030;25.108;2024-03-02T08:39:15;42.00;;;24.00;;
21959;SDS011;11144;43.030;25.108;2024-03-02T08:40:49;56.30;;;28.02;;
21959;SDS011;11144;43.030;25.108;2024-03-02T08:42:22;54.10;;;28.65;;
21959;SDS011;11144;43.030;25.108;2024-03-02T08:43:55;46.38;;;25.23;;
21959;SDS011;11144;43.030;25.108;2024-03-02T08:45:28;41.75;;;23.48;;
21959;SDS011;11144;43.030;25.108;2024-03-02T08:47:01;68.53;;;38.15;;
21959;SDS011;11144;43.030;25.108;2024-03-02T08:48:34;69.78;;;36.80;;
21959;SDS011;11144;43.030;25.108;2024-03-02T08:50:07;74.53;;;36.58;;
21959;SDS011;11144;43.030;25.108;2024-03-02T08:51:40;48.38;;;26.48;;
21959;SDS011;11144;43.030;25.108;2024-03-02T08:53:15;40.75;;;24.05;;
21959;SDS011;11144;43.030;25.108;2024-03-02T08:54:50;43.53;;;24.15;;
21959;SDS011;11144;43.030;25.108;2024-03-02T08:56:23;40.92;;;24.05;;
21959;SDS011;11144;43.030;25.108;2024-03-02T08:57:56;43.10;;;23.25;;
21959;SDS011;11144;43.030;25.108;2024-03-02T08:59:29;44.83;;;24.95;;
21959;SDS011;11144;43.030;25.108;2024-03-02T09:01:03;44.67;;;23.35;;
21959;SDS011;11144;43.030;25.108;2024-03-02T09:02:39;49.25;;;24.88;;